createdAt,value
2018-09-27T00:00:37.312Z,63.43
2018-09-27T00:06:41.837Z,60.13
2018-09-27T00:12:46.401Z,60.91
2018-09-27T00:18:50.988Z,61.61
2018-09-27T00:24:55.526Z,61.34
2018-09-27T00:31:00.151Z,62.15
2018-09-27T00:37:04.713Z,62.06
2018-09-27T00:43:09.292Z,61.64
2018-09-27T00:49:13.847Z,59.90
2018-09-27T00:55:18.701Z,59.91
2018-09-27T01:01:23.272Z,60.70
2018-09-27T01:07:27.890Z,61.53
2018-09-27T01:13:39.225Z,59.66
2018-09-27T01:19:43.800Z,59.51
2018-09-27T01:25:48.321Z,58.42
2018-09-27T01:31:52.946Z,56.62
2018-09-27T01:37:57.585Z,57.83
2018-09-27T01:44:02.172Z,59.10
2018-09-27T01:50:07.571Z,59.89
2018-09-27T01:56:12.149Z,55.38
2018-09-27T02:02:16.714Z,57.95
2018-09-27T02:08:21.322Z,57.79
2018-09-27T02:14:26.434Z,56.91
2018-09-27T02:20:31.025Z,56.21
2018-09-27T02:26:35.593Z,55.92
2018-09-27T02:32:40.760Z,57.56
2018-09-27T02:38:45.332Z,58.54
2018-09-27T02:44:50.253Z,58.30
2018-09-27T02:50:54.822Z,57.40
2018-09-27T02:56:59.693Z,57.53
2018-09-27T03:03:04.247Z,58.58
2018-09-27T03:09:11.414Z,59.20
2018-09-27T03:15:16.032Z,59.63
2018-09-27T03:21:20.566Z,59.05
2018-09-27T03:27:25.136Z,59.19
2018-09-27T03:33:30.044Z,58.15
2018-09-27T03:39:34.637Z,59.11
2018-09-27T03:45:39.188Z,60.74
2018-09-27T03:51:43.738Z,59.83
2018-09-27T03:57:48.319Z,59.91
2018-09-27T04:03:52.926Z,61.40
2018-09-27T04:09:57.483Z,61.65
2018-09-27T04:16:02.082Z,62.11
2018-09-27T04:22:06.688Z,59.80
2018-09-27T04:28:11.936Z,61.52
2018-09-27T04:34:16.470Z,62.45
2018-09-27T04:40:21.035Z,60.64
2018-09-27T04:46:25.953Z,62.28
2018-09-27T04:52:30.865Z,58.15
2018-09-27T04:58:35.753Z,60.38
2018-09-27T05:04:40.298Z,61.36
2018-09-27T05:10:45.207Z,60.77
2018-09-27T05:16:49.832Z,61.19
2018-09-27T05:22:54.748Z,60.65
2018-09-27T05:28:59.349Z,61.28
2018-09-27T05:35:04.303Z,60.79
2018-09-27T05:41:08.847Z,58.72
2018-09-27T05:47:13.416Z,59.52
2018-09-27T05:53:18.624Z,60.25
2018-09-27T05:59:23.200Z,59.23
2018-09-27T06:05:27.801Z,56.59
2018-09-27T06:11:32.513Z,56.56
2018-09-27T06:17:37.033Z,56.25
2018-09-27T06:23:41.595Z,56.67
2018-09-27T06:29:46.536Z,57.62
2018-09-27T06:35:51.133Z,57.74
2018-09-27T06:41:55.774Z,56.87
2018-09-27T06:48:00.312Z,52.87
2018-09-27T06:54:05.243Z,55.84
2018-09-27T07:00:09.950Z,56.52
2018-09-27T07:06:14.532Z,55.53
2018-09-27T07:12:19.862Z,53.32
2018-09-27T07:18:24.591Z,53.17
2018-09-27T07:24:29.495Z,54.36
2018-09-27T07:30:34.362Z,56.08
2018-09-27T07:36:38.975Z,56.22
2018-09-27T07:42:43.627Z,53.87
2018-09-27T07:48:48.219Z,55.15
2018-09-27T07:54:53.311Z,52.62
2018-09-27T08:00:57.874Z,51.30
2018-09-27T08:07:02.880Z,51.25
2018-09-27T08:13:07.474Z,50.71
2018-09-27T08:19:12.074Z,50.50
2018-09-27T08:25:16.642Z,49.39
2018-09-27T08:31:21.269Z,50.74
2018-09-27T08:37:25.870Z,49.40
2018-09-27T08:43:31.353Z,49.97
2018-09-27T08:49:36.299Z,50.99
2018-09-27T08:55:40.968Z,49.18
2018-09-27T09:01:45.575Z,48.95
2018-09-27T09:07:50.201Z,48.50
2018-09-27T09:13:54.791Z,48.13
2018-09-27T09:19:59.375Z,47.42
2018-09-27T09:26:03.961Z,47.47
2018-09-27T09:32:08.532Z,44.33
2018-09-27T09:38:13.180Z,35.50
2018-09-27T09:44:18.071Z,33.19
2018-09-27T09:50:22.680Z,30.64
2018-09-27T09:56:27.235Z,25.24
2018-09-27T10:02:32.581Z,23.71
2018-09-27T10:08:37.080Z,23.52
2018-09-27T10:14:41.665Z,22.67
2018-09-27T10:20:46.287Z,22.57
2018-09-27T10:26:50.843Z,21.66
2018-09-27T10:32:55.433Z,21.52
2018-09-27T10:39:00.297Z,21.87
2018-09-27T10:45:05.270Z,22.51
2018-09-27T10:51:09.869Z,23.29
2018-09-27T10:57:14.534Z,24.20
2018-09-27T11:03:19.059Z,23.50
2018-09-27T11:09:23.635Z,22.25
2018-09-27T11:15:28.217Z,21.23
2018-09-27T11:21:32.782Z,21.63
2018-09-27T11:27:37.446Z,21.86
2018-09-27T11:33:48.827Z,22.71
2018-09-27T11:39:53.800Z,24.21
2018-09-27T11:45:58.470Z,21.34
2018-09-27T11:52:03.079Z,21.32
2018-09-27T11:58:07.767Z,21.81
2018-09-27T12:04:12.349Z,22.35
2018-09-27T12:10:17.314Z,21.67
2018-09-27T12:16:21.883Z,21.40
2018-09-27T12:22:26.844Z,22.98
2018-09-27T12:28:31.439Z,23.58
2018-09-27T12:34:36.033Z,23.17
2018-09-27T12:40:40.756Z,20.88
2018-09-27T12:46:45.565Z,20.52
2018-09-27T12:52:50.217Z,21.06
2018-09-27T12:58:54.813Z,22.28
2018-09-27T13:04:59.738Z,22.49
2018-09-27T13:11:04.297Z,20.12
2018-09-27T13:17:08.975Z,21.71
2018-09-27T13:23:13.513Z,21.11
2018-09-27T13:29:18.493Z,20.94
2018-09-27T13:35:23.142Z,18.81
2018-09-27T13:41:27.768Z,19.85
2018-09-27T13:47:32.773Z,18.43
2018-09-27T13:53:37.340Z,16.26
2018-09-27T13:59:41.891Z,15.37
2018-09-27T14:05:46.441Z,13.91
2018-09-27T14:11:51.392Z,13.56
2018-09-27T14:17:55.937Z,13.55
2018-09-27T14:24:00.481Z,12.75
2018-09-27T14:30:05.186Z,13.28
2018-09-27T14:36:10.075Z,12.57
2018-09-27T14:42:14.672Z,13.21
2018-09-27T14:48:19.241Z,13.53
2018-09-27T14:54:23.853Z,13.96
2018-09-27T15:00:28.433Z,14.33
2018-09-27T15:06:33.071Z,12.92
2018-09-27T15:12:38.106Z,13.26
2018-09-27T15:18:42.966Z,12.76
2018-09-27T15:24:48.123Z,12.75
2018-09-27T15:30:52.703Z,11.21
2018-09-27T15:36:57.349Z,11.05
2018-09-27T15:43:02.287Z,11.33
2018-09-27T15:49:07.013Z,11.69
2018-09-27T15:55:12.368Z,12.27
2018-09-27T16:01:17.164Z,14.56
2018-09-27T16:07:21.785Z,13.55
2018-09-27T16:13:26.386Z,14.78
2018-09-27T16:19:30.975Z,17.39
2018-09-27T16:25:35.532Z,18.45
2018-09-27T16:31:40.180Z,18.58
2018-09-27T16:37:44.793Z,18.41
2018-09-27T16:43:49.699Z,20.32
2018-09-27T16:49:54.286Z,23.60
2018-09-27T16:55:58.909Z,26.29
2018-09-27T17:02:03.508Z,29.38
2018-09-27T17:08:08.189Z,31.37
2018-09-27T17:14:12.866Z,34.14
2018-09-27T17:20:17.560Z,35.76
2018-09-27T17:26:22.456Z,35.47
2018-09-27T17:32:27.101Z,37.53
2018-09-27T17:38:31.738Z,37.63
2018-09-27T17:44:36.353Z,37.63
2018-09-27T17:50:40.960Z,38.98
2018-09-27T17:56:46.103Z,39.16
2018-09-27T18:02:50.718Z,39.02
2018-09-27T18:08:55.386Z,39.85
2018-09-27T18:14:59.985Z,39.84
2018-09-27T18:21:04.978Z,40.19
2018-09-27T18:27:09.579Z,39.46
2018-09-27T18:33:14.156Z,40.71
2018-09-27T18:39:18.809Z,40.80
2018-09-27T18:45:23.576Z,42.25
2018-09-27T18:51:28.313Z,42.08
2018-09-27T18:57:33.382Z,42.34
2018-09-27T19:03:38.231Z,42.89
2018-09-27T19:09:43.417Z,43.41
2018-09-27T19:15:48.057Z,44.36
2018-09-27T19:21:52.615Z,44.13
2018-09-27T19:27:57.230Z,44.66
2018-09-27T19:34:01.806Z,46.21
2018-09-27T19:40:06.409Z,46.84
2018-09-27T19:46:11.011Z,46.10
2018-09-27T19:52:15.705Z,47.27
2018-09-27T19:58:20.689Z,46.94
2018-09-27T20:04:25.362Z,47.17
2018-09-27T20:10:29.965Z,47.37
2018-09-27T20:16:34.656Z,48.07
2018-09-27T20:22:39.238Z,47.39
2018-09-27T20:28:43.785Z,47.93
2018-09-27T20:34:48.465Z,48.29
2018-09-27T20:40:53.314Z,48.89
2018-09-27T20:46:58.281Z,50.10
2018-09-27T20:53:02.917Z,49.28
2018-09-27T20:59:07.505Z,48.40
2018-09-27T21:05:12.120Z,49.05
2018-09-27T21:11:16.749Z,50.78
2018-09-27T21:17:21.401Z,50.86
2018-09-27T21:23:25.956Z,51.17
2018-09-27T21:29:30.592Z,51.59
2018-09-27T21:35:35.219Z,51.40
2018-09-27T21:41:39.823Z,52.59
2018-09-27T21:47:44.450Z,53.90
2018-09-27T21:53:49.080Z,53.70
2018-09-27T21:59:54.080Z,53.89
2018-09-27T22:05:58.703Z,53.49
2018-09-27T22:12:03.671Z,54.19
2018-09-27T22:18:08.298Z,54.21
2018-09-27T22:24:12.882Z,55.42
2018-09-27T22:30:17.476Z,56.83
2018-09-27T22:36:22.376Z,57.52
2018-09-27T22:42:27.328Z,58.00
2018-09-27T22:48:31.921Z,59.93
2018-09-27T22:54:36.595Z,60.37
2018-09-27T23:00:41.162Z,61.32
2018-09-27T23:06:46.130Z,61.63
2018-09-27T23:12:50.791Z,61.72
2018-09-27T23:18:55.701Z,62.22
2018-09-27T23:25:00.295Z,62.50
2018-09-27T23:31:04.861Z,62.89
2018-09-27T23:37:09.430Z,62.29
2018-09-27T23:43:14.034Z,62.39
2018-09-27T23:49:19.011Z,62.29
2018-09-27T23:55:23.640Z,62.06
